Time;durP1;ratioP1;P1;durP2;ratioP2;P2;SDS_P1;SDS_P2;PMS_P1;PMS_P2;Temp;Humidity;BMP_temperature;BMP_pressure;BME280_temperature;BME280_humidity;BME280_pressure;Samples;Min_cycle;Max_cycle;Signal;HPM_P1;HPM_P2
2023/04/15 00:01:32;;;;;;;8.40;3.10;;;6.30;99.90;;;;;;5072183;28;20495;-53
2023/04/15 00:03:58;;;;;;;8.27;3.10;;;5.70;99.90;;;;;;5071569;28;20525;-53
2023/04/15 00:06:24;;;;;;;10.98;3.90;;;5.90;99.90;;;;;;5072009;28;20907;-53
2023/04/15 00:08:49;;;;;;;9.53;3.30;;;5.90;99.90;;;;;;5071008;28;20463;-53
2023/04/15 00:11:16;;;;;;;11.10;3.92;;;7.90;85.80;;;;;;5071922;28;20421;-53
2023/04/15 00:13:42;;;;;;;10.05;3.70;;;6.20;1.00;;;;;;5071337;28;20404;-53
2023/04/15 00:16:08;;;;;;;10.53;3.57;;;6.10;1.00;;;;;;5071925;28;20379;-53
2023/04/15 00:18:34;;;;;;;11.80;3.42;;;6.10;1.00;;;;;;5071649;28;20466;-53
2023/04/15 00:21:00;;;;;;;9.32;3.78;;;6.00;1.00;;;;;;5071415;28;20456;-53
2023/04/15 00:23:26;;;;;;;8.40;3.03;;;5.90;1.00;;;;;;5072103;28;20733;-53
2023/04/15 00:25:52;;;;;;;12.02;4.00;;;5.90;1.00;;;;;;5071267;28;20380;-53
2023/04/15 00:28:18;;;;;;;8.30;2.80;;;5.80;64.80;;;;;;5071074;28;20407;-53
2023/04/15 00:30:43;;;;;;;9.20;3.30;;;7.40;99.90;;;;;;5070963;28;20376;-53
2023/04/15 00:33:09;;;;;;;9.33;3.37;;;7.20;99.90;;;;;;5071662;28;20467;-53
2023/04/15 00:35:36;;;;;;;9.40;3.00;;;5.80;99.90;;;;;;5071232;28;20452;-53
2023/04/15 00:38:02;;;;;;;10.65;3.58;;;7.10;99.90;;;;;;5071554;28;20390;-53
2023/04/15 00:40:28;;;;;;;11.00;3.33;;;5.70;99.90;;;;;;5069933;28;20793;-53
2023/04/15 00:42:53;;;;;;;9.73;3.13;;;5.60;99.90;;;;;;5070849;28;20417;-53
2023/04/15 00:45:19;;;;;;;10.13;2.87;;;5.50;1.00;;;;;;5071541;28;21046;-53
2023/04/15 00:47:45;;;;;;;9.05;3.58;;;5.40;1.00;;;;;;5070481;28;20425;-53
2023/04/15 00:50:11;;;;;;;11.13;3.57;;;7.20;1.00;;;;;;5071071;28;20861;-53
2023/04/15 00:52:37;;;;;;;8.38;3.20;;;5.60;99.90;;;;;;5070523;28;20388;-54
2023/04/15 00:55:04;;;;;;;9.07;3.50;;;5.50;99.90;;;;;;5071318;28;20419;-53
2023/04/15 00:57:30;;;;;;;7.40;3.03;;;5.40;99.90;;;;;;5071288;28;20384;-53
2023/04/15 00:59:56;;;;;;;8.50;2.90;;;5.30;99.90;;;;;;5069951;28;20463;-53
2023/04/15 01:02:23;;;;;;;7.53;2.90;;;5.20;99.90;;;;;;5070683;28;20399;-53
2023/04/15 01:04:49;;;;;;;9.07;3.00;;;6.10;1.00;;;;;;5069453;28;20380;-53
2023/04/15 01:07:14;;;;;;;8.52;3.45;;;5.20;1.00;;;;;;5071209;28;20391;-53
2023/04/15 01:09:41;;;;;;;10.63;2.75;;;5.70;8.30;;;;;;5070421;28;20380;-53
2023/04/15 01:12:09;;;;;;;8.77;2.65;;;5.10;99.90;;;;;;5070668;28;20384;-53
2023/04/15 01:14:35;;;;;;;10.35;3.20;;;5.50;28.20;;;;;;5070391;28;20407;-53
2023/04/15 01:17:01;;;;;;;8.23;2.67;;;5.90;89.00;;;;;;5070150;28;20437;-53
2023/04/15 01:19:27;;;;;;;8.48;2.75;;;4.90;55.10;;;;;;5070714;28;20853;-53
2023/04/15 01:21:53;;;;;;;9.00;3.15;;;5.80;99.90;;;;;;5069502;28;20406;-53
2023/04/15 01:24:19;;;;;;;10.30;3.40;;;5.40;99.90;;;;;;5070265;28;20829;-53
2023/04/15 01:26:45;;;;;;;7.90;3.00;;;6.80;99.90;;;;;;5069868;28;20394;-53
2023/04/15 01:29:11;;;;;;;8.93;3.08;;;5.20;1.00;;;;;;5069966;28;21186;-53
2023/04/15 01:31:37;;;;;;;11.00;3.80;;;7.10;1.00;;;;;;5069786;28;20376;-53
2023/04/15 01:34:03;;;;;;;11.38;2.70;;;5.00;30.00;;;;;;5070778;28;20458;-53
2023/04/15 01:36:29;;;;;;;9.43;3.20;;;5.10;1.00;;;;;;5070220;28;20380;-53
2023/04/15 01:38:56;;;;;;;7.80;2.80;;;5.00;1.00;;;;;;5069433;28;20424;-53
2023/04/15 01:41:26;;;;;;;8.30;2.65;;;6.20;1.00;;;;;;5070591;28;20391;-53
2023/04/15 01:43:52;;;;;;;9.88;3.10;;;4.90;1.00;;;;;;5069897;28;20533;-53
2023/04/15 01:46:17;;;;;;;8.05;2.83;;;6.20;1.00;;;;;;5069728;28;20470;-53
2023/04/15 01:48:43;;;;;;;9.80;3.72;;;6.30;57.10;;;;;;5051546;28;20372;-53
2023/04/15 01:51:09;;;;;;;9.70;3.30;;;5.90;99.90;;;;;;5070417;28;20379;-52
2023/04/15 01:53:34;;;;;;;8.00;3.08;;;6.80;99.90;;;;;;5051891;28;20506;-53
2023/04/15 01:56:00;;;;;;;9.40;3.40;;;6.80;99.90;;;;;;5070107;28;20382;-53
2023/04/15 01:58:26;;;;;;;10.73;3.00;;;6.80;1.00;;;;;;5069657;28;20537;-53
2023/04/15 02:00:51;;;;;;;9.53;3.10;;;5.20;99.90;;;;;;5069801;28;20387;-53
2023/04/15 02:03:17;;;;;;;12.03;3.60;;;5.10;99.90;;;;;;5070006;28;20388;-53
2023/04/15 02:05:42;;;;;;;12.43;4.10;;;6.20;1.00;;;;;;5069224;28;20480;-52
2023/04/15 02:08:08;;;;;;;9.23;3.57;;;5.90;1.00;;;;;;5069875;28;20382;-53
2023/04/15 02:10:34;;;;;;;8.93;3.10;;;4.50;99.90;;;;;;5069527;28;20376;-53
2023/04/15 02:13:00;;;;;;;8.80;3.60;;;6.40;99.90;;;;;;5068977;28;20761;-53
2023/04/15 02:15:25;;;;;;;10.65;3.28;;;4.50;1.00;;;;;;5069726;28;20404;-53
2023/04/15 02:17:51;;;;;;;8.63;3.40;;;4.50;1.00;;;;;;5068904;28;20376;-53
2023/04/15 02:20:18;;;;;;;12.10;3.50;;;5.10;1.00;;;;;;5069653;28;20380;-52
2023/04/15 02:22:44;;;;;;;7.28;3.08;;;5.60;1.00;;;;;;5068589;28;20376;-53
2023/04/15 02:25:10;;;;;;;8.37;2.90;;;4.40;6.50;;;;;;5069900;28;20380;-53
2023/04/15 02:27:36;;;;;;;7.93;2.92;;;6.20;99.90;;;;;;5069526;28;20441;-53
2023/04/15 02:30:02;;;;;;;9.00;3.10;;;4.50;1.00;;;;;;5069246;28;20404;-53
2023/04/15 02:32:28;;;;;;;11.07;3.80;;;4.50;99.90;;;;;;5069983;28;20873;-53
2023/04/15 02:34:53;;;;;;;14.57;3.53;;;4.50;48.40;;;;;;5068548;28;20407;-52
2023/04/15 02:37:19;;;;;;;11.20;3.20;;;4.60;1.00;;;;;;5069917;28;20394;-53
2023/04/15 02:39:45;;;;;;;11.77;3.40;;;5.20;1.00;;;;;;5069096;28;20873;-53
2023/04/15 02:42:12;;;;;;;8.00;3.10;;;5.90;99.90;;;;;;5069162;28;20384;-52
2023/04/15 02:44:37;;;;;;;7.60;2.60;;;4.40;99.90;;;;;;5069196;28;20772;-54
2023/04/15 02:47:05;;;;;;;8.93;2.90;;;5.30;99.90;;;;;;5069628;28;20387;-52
2023/04/15 02:49:31;;;;;;;8.00;3.10;;;4.30;99.90;;;;;;5069349;28;20501;-52
2023/04/15 02:51:58;;;;;;;8.88;3.13;;;5.00;1.00;;;;;;5068873;28;20576;-53
2023/04/15 02:54:27;;;;;;;6.35;2.50;;;4.20;1.00;;;;;;5069765;28;20406;-52
2023/04/15 02:56:55;;;;;;;8.13;3.28;;;4.20;1.00;;;;;;5068277;28;20478;-52
2023/04/15 02:59:20;;;;;;;9.43;3.20;;;4.20;1.00;;;;;;5069266;28;20476;-53
2023/04/15 03:01:46;;;;;;;9.55;2.95;;;4.30;37.90;;;;;;5068351;28;20481;-53
2023/04/15 03:04:13;;;;;;;6.60;2.40;;;4.60;1.00;;;;;;5068926;28;20381;-53
2023/04/15 03:06:38;;;;;;;8.25;2.80;;;4.40;99.90;;;;;;5068640;28;20375;-53
2023/04/15 03:09:04;;;;;;;8.52;3.45;;;4.40;2.30;;;;;;5069174;28;20749;-53
2023/04/15 03:11:30;;;;;;;7.10;2.80;;;4.50;99.90;;;;;;5069416;28;20407;-53
2023/04/15 03:13:57;;;;;;;7.57;3.40;;;4.60;99.90;;;;;;5068697;28;20395;-53
2023/04/15 03:16:23;;;;;;;9.82;3.40;;;4.40;99.90;;;;;;5069401;28;20399;-53
2023/04/15 03:18:49;;;;;;;9.93;3.20;;;4.30;1.00;;;;;;5068471;28;20477;-53
2023/04/15 03:21:15;;;;;;;8.15;2.85;;;4.30;1.00;;;;;;5069233;28;20426;-52
2023/04/15 03:23:40;;;;;;;7.82;3.38;;;4.30;1.00;;;;;;5068446;28;20758;-53
2023/04/15 03:26:06;;;;;;;9.43;3.50;;;4.20;99.90;;;;;;5069078;28;20384;-52
2023/04/15 03:28:32;;;;;;;8.65;3.00;;;4.10;99.90;;;;;;5072368;28;20404;-53
2023/04/15 03:30:58;;;;;;;7.68;2.80;;;4.10;1.00;;;;;;5072067;28;20717;-52
2023/04/15 03:33:25;;;;;;;9.77;3.30;;;4.10;1.00;;;;;;5072469;28;20447;-52
2023/04/15 03:35:51;;;;;;;8.80;2.70;;;4.00;1.00;;;;;;5071934;28;20440;-52
2023/04/15 03:38:17;;;;;;;8.43;2.90;;;3.90;99.90;;;;;;5072864;28;20868;-52
2023/04/15 03:40:45;;;;;;;8.02;3.45;;;3.90;1.00;;;;;;5054250;28;20434;-53
2023/04/15 03:43:11;;;;;;;11.55;3.72;;;3.90;1.00;;;;;;5072714;28;20872;-52
2023/04/15 03:45:36;;;;;;;11.30;3.60;;;4.00;99.90;;;;;;5072311;28;20487;-53
2023/04/15 03:48:02;;;;;;;8.75;3.70;;;3.90;1.00;;;;;;5071831;28;20474;-53
2023/04/15 03:50:28;;;;;;;9.13;3.58;;;3.90;1.00;;;;;;5072692;28;20380;-52
2023/04/15 03:52:53;;;;;;;9.70;3.50;;;4.50;1.00;;;;;;5071679;28;20730;-52
2023/04/15 03:55:19;;;;;;;7.13;3.00;;;4.10;1.00;;;;;;5071845;28;20407;-52
2023/04/15 03:57:45;;;;;;;9.30;3.53;;;4.20;1.00;;;;;;5071619;28;20947;-53
2023/04/15 04:00:11;;;;;;;9.27;3.30;;;4.20;1.00;;;;;;5072050;28;20422;-53
2023/04/15 04:02:37;;;;;;;8.75;3.85;;;4.20;1.00;;;;;;5071739;28;20384;-54
2023/04/15 04:05:03;;;;;;;8.55;3.25;;;4.20;1.00;;;;;;5072149;28;20433;-54
2023/04/15 04:07:29;;;;;;;11.18;3.47;;;4.20;1.00;;;;;;5071926;28;20391;-52
2023/04/15 04:09:56;;;;;;;9.52;3.50;;;4.40;1.00;;;;;;5071305;28;20403;-53
2023/04/15 04:12:22;;;;;;;8.77;3.92;;;4.10;1.00;;;;;;5071970;28;20380;-52
2023/04/15 04:14:48;;;;;;;9.70;4.27;;;4.10;99.90;;;;;;5071180;28;20689;-53
2023/04/15 04:17:13;;;;;;;8.43;3.65;;;4.10;77.50;;;;;;5072022;28;20395;-52
2023/04/15 04:19:39;;;;;;;9.60;3.73;;;5.20;99.90;;;;;;5071603;28;20372;-53
2023/04/15 04:22:05;;;;;;;8.75;3.50;;;6.00;99.90;;;;;;5071566;28;20411;-52
2023/04/15 04:24:31;;;;;;;10.52;3.97;;;4.10;1.00;;;;;;5071814;28;20382;-52
2023/04/15 04:26:56;;;;;;;9.10;3.77;;;4.10;1.00;;;;;;5071160;28;20483;-52
2023/04/15 04:29:23;;;;;;;13.70;3.50;;;4.90;1.00;;;;;;5071139;28;20447;-52
2023/04/15 04:31:49;;;;;;;9.00;3.35;;;3.90;1.50;;;;;;5071198;28;20457;-52
2023/04/15 04:34:15;;;;;;;9.87;3.80;;;3.90;53.70;;;;;;5071658;28;20404;-52
2023/04/15 04:36:40;;;;;;;12.90;3.53;;;3.90;38.80;;;;;;5071086;28;20869;-53
2023/04/15 04:39:06;;;;;;;13.20;4.30;;;3.80;1.00;;;;;;5071349;28;20425;-52
2023/04/15 04:41:32;;;;;;;11.55;3.80;;;5.50;99.90;;;;;;5071589;28;20872;-52
2023/04/15 04:43:58;;;;;;;9.47;4.00;;;5.00;99.90;;;;;;5070853;28;20402;-52
2023/04/15 04:46:23;;;;;;;10.25;4.18;;;3.90;99.90;;;;;;5071392;28;20438;-53
2023/04/15 04:48:49;;;;;;;10.73;3.40;;;3.90;89.80;;;;;;5070466;28;20853;-52
2023/04/15 04:51:14;;;;;;;12.60;6.00;;;4.10;19.90;;;;;;5071234;28;20471;-52
2023/04/15 04:53:41;;;;;;;12.00;5.03;;;4.20;1.00;;;;;;5070882;28;20900;-53
2023/04/15 04:56:07;;;;;;;8.70;3.47;;;6.10;99.90;;;;;;5070876;28;20380;-52
2023/04/15 04:58:33;;;;;;;9.63;3.50;;;4.20;99.90;;;;;;5070947;28;20861;-52
2023/04/15 05:00:58;;;;;;;7.53;3.55;;;4.20;99.90;;;;;;5068869;28;20731;-52
2023/04/15 05:03:24;;;;;;;7.87;3.43;;;4.20;1.00;;;;;;5070824;28;20376;-52
2023/04/15 05:05:50;;;;;;;10.57;4.27;;;4.10;99.90;;;;;;5070426;28;20439;-52
2023/04/15 05:08:16;;;;;;;13.20;4.75;;;4.00;1.00;;;;;;5071019;28;20372;-52
2023/04/15 05:10:41;;;;;;;11.00;4.07;;;4.00;39.50;;;;;;5070131;28;20868;-53
2023/04/15 05:13:07;;;;;;;10.43;5.15;;;4.00;99.90;;;;;;5071002;28;20488;-52
2023/04/15 05:15:35;;;;;;;15.77;5.23;;;5.70;1.00;;;;;;5070839;28;20403;-52
2023/04/15 05:18:01;;;;;;;18.90;5.63;;;4.20;1.00;;;;;;5069962;28;20533;-52
2023/04/15 05:20:27;;;;;;;11.93;4.88;;;4.40;1.00;;;;;;5070435;28;20891;-52
2023/04/15 05:22:52;;;;;;;12.57;5.33;;;4.50;99.90;;;;;;5070106;28;20387;-53
2023/04/15 05:25:19;;;;;;;16.42;5.78;;;4.50;1.00;;;;;;5070534;28;20396;-53
2023/04/15 05:27:44;;;;;;;13.57;5.10;;;4.60;1.00;;;;;;5069887;28;20380;-53
2023/04/15 05:30:10;;;;;;;9.77;5.28;;;4.70;1.00;;;;;;5070708;28;20848;-53
2023/04/15 05:32:36;;;;;;;15.80;5.43;;;4.90;99.90;;;;;;5070595;28;20406;-52
2023/04/15 05:35:03;;;;;;;12.10;5.20;;;5.00;99.90;;;;;;5068758;28;22010;-53
2023/04/15 05:37:29;;;;;;;18.30;5.55;;;5.30;99.90;;;;;;5070508;28;20475;-53
2023/04/15 05:39:55;;;;;;;11.60;5.00;;;6.50;99.90;;;;;;5069309;28;20466;-53
2023/04/15 05:42:21;;;;;;;10.30;4.32;;;6.60;1.00;;;;;;5070367;28;20398;-53
2023/04/15 05:44:46;;;;;;;10.73;5.20;;;6.80;99.90;;;;;;5069898;28;20733;-53
2023/04/15 05:47:13;;;;;;;12.48;4.90;;;7.80;1.00;;;;;;5070098;28;20434;-53
2023/04/15 05:49:38;;;;;;;11.60;4.53;;;8.90;1.00;;;;;;5069758;28;20461;-54
2023/04/15 05:52:04;;;;;;;14.25;4.75;;;8.70;99.90;;;;;;5069751;28;20837;-53
2023/04/15 05:54:30;;;;;;;12.00;4.90;;;9.30;1.00;;;;;;5069809;28;20400;-53
2023/04/15 05:56:57;;;;;;;13.25;5.03;;;9.90;1.00;;;;;;5069160;28;20376;-53
2023/04/15 05:59:22;;;;;;;11.00;4.70;;;10.90;1.00;;;;;;5070144;28;20760;-53
2023/04/15 06:01:48;;;;;;;10.97;3.90;;;11.50;1.00;;;;;;5069307;28;20388;-53
2023/04/15 06:04:14;;;;;;;9.45;4.45;;;12.20;99.90;;;;;;5065845;28;20951;-55
2023/04/15 06:06:40;;;;;;;10.32;3.80;;;12.30;99.90;;;;;;5065677;28;20486;-54
2023/04/15 06:09:05;;;;;;;10.43;4.20;;;12.90;99.90;;;;;;5069640;28;20782;-54
2023/04/15 06:11:31;;;;;;;10.17;4.20;;;13.10;99.90;;;;;;5070110;28;20379;-53
2023/04/15 06:13:56;;;;;;;10.13;4.07;;;12.70;99.90;;;;;;5068600;28;20991;-54
2023/04/15 06:16:22;;;;;;;11.30;4.15;;;12.20;99.90;;;;;;5069571;28;20379;-54
2023/04/15 06:18:48;;;;;;;11.20;4.90;;;12.00;99.90;;;;;;5068978;28;20376;-54
2023/04/15 06:21:14;;;;;;;9.80;4.30;;;12.10;99.90;;;;;;5069703;28;20507;-54
2023/04/15 06:23:40;;;;;;;10.57;4.23;;;12.10;99.90;;;;;;5069377;28;20383;-54
2023/04/15 06:26:06;;;;;;;14.98;4.80;;;12.60;99.90;;;;;;5069270;28;20386;-54
2023/04/15 06:28:31;;;;;;;12.05;4.50;;;13.30;99.90;;;;;;5051035;28;20415;-54
2023/04/15 06:30:57;;;;;;;9.93;4.30;;;13.40;99.90;;;;;;5068816;28;20422;-52
2023/04/15 06:33:23;;;;;;;13.60;4.63;;;14.10;99.90;;;;;;5069391;28;20790;-52
2023/04/15 06:35:49;;;;;;;9.50;4.27;;;15.20;99.90;;;;;;5068528;28;20969;-52
2023/04/15 06:38:14;;;;;;;11.88;4.30;;;15.50;99.90;;;;;;5069297;28;20372;-52
2023/04/15 06:40:41;;;;;;;8.23;3.93;;;15.20;99.90;;;;;;5068720;28;20554;-53
2023/04/15 06:43:06;;;;;;;10.00;4.22;;;15.60;99.90;;;;;;5068825;28;20414;-54
2023/04/15 06:45:32;;;;;;;10.27;4.63;;;16.50;99.90;;;;;;5069169;28;20391;-54
2023/04/15 06:47:58;;;;;;;9.20;4.25;;;16.40;99.90;;;;;;5068873;28;20431;-54
2023/04/15 06:50:23;;;;;;;8.55;4.05;;;16.10;99.90;;;;;;5069904;28;20396;-54
2023/04/15 06:52:49;;;;;;;10.10;4.10;;;15.90;99.90;;;;;;5069163;28;20852;-55
2023/04/15 06:55:15;;;;;;;9.68;4.13;;;16.00;99.90;;;;;;5069362;28;20453;-52
2023/04/15 06:57:40;;;;;;;9.20;4.03;;;15.50;99.90;;;;;;5068677;28;20394;-53
2023/04/15 07:00:07;;;;;;;10.02;4.20;;;15.40;99.90;;;;;;5068740;28;20389;-52
2023/04/15 07:02:32;;;;;;;9.40;4.10;;;15.30;99.90;;;;;;5070671;28;20375;-52
2023/04/15 07:04:58;;;;;;;9.50;3.93;;;15.70;99.90;;;;;;5072174;28;20376;-56
2023/04/15 07:07:24;;;;;;;7.90;3.87;;;15.90;99.90;;;;;;5073189;28;20433;-57
2023/04/15 07:09:51;;;;;;;7.43;4.55;;;16.10;99.90;;;;;;5072487;28;20388;-58
2023/04/15 07:12:17;;;;;;;8.82;4.93;;;16.40;99.90;;;;;;5072816;28;20474;-56
2023/04/15 07:14:42;;;;;;;9.87;6.00;;;17.00;99.90;;;;;;5071947;28;20411;-58
2023/04/15 07:17:08;;;;;;;8.33;3.00;;;17.60;99.90;;;;;;5072964;28;20398;-58
2023/04/15 07:19:34;;;;;;;8.38;3.70;;;17.50;99.90;;;;;;5055370;28;20813;-58
2023/04/15 07:22:00;;;;;;;9.10;3.03;;;17.80;99.90;;;;;;5072021;28;20453;-58
2023/04/15 07:24:26;;;;;;;7.20;2.80;;;17.20;99.90;;;;;;5072844;28;20380;-55
2023/04/15 07:26:56;;;;;;;9.10;3.60;;;17.00;99.90;;;;;;5072149;28;20947;-53
2023/04/15 07:29:22;;;;;;;10.23;2.90;;;16.00;99.90;;;;;;5072194;28;20416;-53
2023/04/15 07:31:47;;;;;;;7.70;2.80;;;14.90;99.90;;;;;;5071953;28;20391;-53
2023/04/15 07:34:13;;;;;;;8.40;3.00;;;14.30;99.90;;;;;;5072289;28;20407;-53
2023/04/15 07:36:39;;;;;;;8.50;3.47;;;13.70;99.90;;;;;;5072762;28;20410;-53
2023/04/15 07:39:05;;;;;;;8.93;3.73;;;13.10;99.90;;;;;;5072000;28;20728;-53
2023/04/15 07:41:30;;;;;;;8.57;5.30;;;12.90;99.90;;;;;;5072577;28;20395;-53
2023/04/15 07:43:56;;;;;;;9.90;7.13;;;12.80;99.90;;;;;;5071693;28;20941;-55
2023/04/15 07:46:23;;;;;;;8.20;2.63;;;12.80;99.90;;;;;;5072553;28;20776;-55
2023/04/15 07:48:49;;;;;;;6.75;2.95;;;13.50;99.90;;;;;;5071957;28;20845;-53
2023/04/15 07:51:16;;;;;;;7.68;3.30;;;14.60;99.90;;;;;;5072604;28;20430;-53
2023/04/15 07:53:43;;;;;;;9.27;3.30;;;15.90;99.90;;;;;;5071789;28;20899;-54
2023/04/15 07:56:09;;;;;;;9.68;2.97;;;17.20;99.90;;;;;;5071830;28;20388;-55
2023/04/15 07:58:34;;;;;;;9.70;3.10;;;18.30;99.90;;;;;;5072074;28;20392;-56
2023/04/15 08:01:00;;;;;;;9.53;2.70;;;19.00;99.90;;;;;;5071920;28;20434;-56
2023/04/15 08:03:26;;;;;;;7.40;2.80;;;19.10;99.90;;;;;;5072643;28;20690;-56
2023/04/15 08:05:53;;;;;;;8.20;3.20;;;18.60;99.90;;;;;;5071917;28;20423;-56
2023/04/15 08:08:18;;;;;;;7.93;3.88;;;18.60;99.90;;;;;;5071958;28;20375;-53
2023/04/15 08:10:44;;;;;;;9.65;4.30;;;18.70;99.90;;;;;;5071431;28;20501;-56
2023/04/15 08:13:11;;;;;;;9.23;3.17;;;19.10;99.90;;;;;;5071493;28;20455;-56
2023/04/15 08:15:37;;;;;;;7.63;3.00;;;19.50;99.90;;;;;;5071962;28;20888;-56
2023/04/15 08:18:03;;;;;;;8.30;3.20;;;19.30;99.90;;;;;;5071195;28;20387;-56
2023/04/15 08:20:28;;;;;;;8.47;5.00;;;19.80;99.90;;;;;;5072007;28;20853;-53
2023/04/15 08:22:54;;;;;;;9.27;3.50;;;20.30;1.00;;;;;;5070719;28;20375;-54
2023/04/15 08:25:20;;;;;;;12.43;8.45;;;21.00;99.90;;;;;;5071623;28;20837;-54
2023/04/15 08:27:46;;;;;;;10.45;7.78;;;21.10;99.90;;;;;;5070669;28;20875;-56
2023/04/15 08:30:12;;;;;;;13.73;8.07;;;19.80;99.90;;;;;;5072408;28;20549;-56
2023/04/15 08:32:38;;;;;;;8.93;6.93;;;19.10;99.90;;;;;;5071694;28;20391;-56
2023/04/15 08:35:04;;;;;;;10.10;8.07;;;19.30;99.90;;;;;;5070529;28;21018;-56
2023/04/15 08:37:30;;;;;;;9.40;7.00;;;19.00;99.90;;;;;;5071492;28;20387;-56
2023/04/15 08:39:55;;;;;;;9.20;7.10;;;19.00;99.90;;;;;;5070959;28;20364;-60
2023/04/15 08:42:30;;;;;;;8.63;6.90;;;19.80;99.90;;;;;;5071275;28;20483;-53
2023/04/15 08:44:58;;;;;;;8.98;6.50;;;20.10;99.90;;;;;;5071235;28;20402;-54
2023/04/15 08:47:28;;;;;;;8.65;6.65;;;20.80;99.90;;;;;;5071323;28;20406;-54
2023/04/15 08:49:57;;;;;;;8.30;7.00;;;21.10;99.90;;;;;;5070525;28;20841;-54
2023/04/15 08:52:26;;;;;;;8.75;7.38;;;20.50;99.90;;;;;;5070632;28;20927;-54
2023/04/15 08:54:57;;;;;;;11.25;8.60;;;;;;;;;;5070715;28;20418;-54
2023/04/15 08:57:26;;;;;;;10.10;8.20;;;22.30;99.90;;;;;;5071400;28;20363;-54
2023/04/15 08:59:53;;;;;;;10.00;8.20;;;22.80;99.90;;;;;;5070287;28;20424;-54
2023/04/15 09:02:18;;;;;;;12.85;6.68;;;23.00;99.90;;;;;;5070949;28;20395;-54
2023/04/15 09:04:44;;;;;;;9.95;6.57;;;23.10;99.90;;;;;;5070608;28;20409;-54
2023/04/15 09:07:10;;;;;;;10.63;8.25;;;22.60;99.90;;;;;;5070846;28;20414;-54
2023/04/15 09:09:39;;;;;;;7.22;3.97;;;22.00;99.90;;;;;;5071075;28;20495;-54
2023/04/15 09:12:04;;;;;;;9.27;6.80;;;22.70;99.90;;;;;;5070029;28;20407;-57
2023/04/15 09:14:31;;;;;;;11.60;7.50;;;23.40;99.90;;;;;;5070749;28;20467;-57
2023/04/15 09:17:02;;;;;;;13.00;7.27;;;23.30;99.90;;;;;;5070167;28;20392;-57
2023/04/15 09:19:28;;;;;;;6.70;2.60;;;22.90;99.90;;;;;;5070815;28;20394;-55
2023/04/15 09:21:58;;;;;;;10.60;8.23;;;22.90;99.90;;;;;;5070347;28;20375;-55
2023/04/15 09:24:25;;;;;;;9.48;8.48;;;23.00;99.90;;;;;;5069991;28;20725;-54
2023/04/15 09:26:53;;;;;;;9.60;7.30;;;22.50;99.90;;;;;;5069796;28;20459;-54
2023/04/15 09:29:19;;;;;;;9.77;6.90;;;21.40;99.90;;;;;;5069909;28;20400;-54
2023/04/15 09:31:46;;;;;;;8.33;6.90;;;21.10;99.90;;;;;;5069612;28;20417;-54
2023/04/15 09:34:11;;;;;;;10.85;7.10;;;20.50;99.90;;;;;;5070061;28;20412;-57
2023/04/15 09:36:46;;;;;;;9.47;6.60;;;19.80;99.90;;;;;;5070456;28;20386;-57
2023/04/15 09:39:12;;;;;;;8.43;6.07;;;19.80;99.90;;;;;;5070150;28;20387;-57
2023/04/15 09:41:38;;;;;;;9.35;6.65;;;20.40;99.90;;;;;;5070300;28;20376;-54
2023/04/15 09:44:04;;;;;;;8.80;7.00;;;20.80;99.90;;;;;;5069173;28;20386;-54
2023/04/15 09:46:43;;;;;;;10.30;7.07;;;20.00;99.90;;;;;;5070136;28;20862;-56
2023/04/15 09:49:10;;;;;;;10.43;7.43;;;18.90;99.90;;;;;;5070139;28;20379;-56
2023/04/15 09:51:36;;;;;;;10.60;6.97;;;18.60;99.90;;;;;;5070294;28;20376;-56
2023/04/15 09:54:03;;;;;;;10.05;7.28;;;18.80;99.90;;;;;;5069269;28;20415;-56
2023/04/15 09:56:42;;;;;;;13.48;7.93;;;18.90;99.90;;;;;;5069922;28;20390;-56
2023/04/15 09:59:08;;;;;;;10.25;7.10;;;18.80;99.90;;;;;;5069811;28;20449;-57
2023/04/15 10:01:35;;;;;;;9.27;6.85;;;19.10;99.90;;;;;;5069932;28;20472;-56
2023/04/15 10:04:05;;;;;;;10.98;6.70;;;19.20;99.90;;;;;;5069175;28;20400;-56
2023/04/15 10:06:31;;;;;;;8.88;6.60;;;19.40;99.90;;;;;;5070079;28;20474;-56
2023/04/15 10:08:57;;;;;;;10.67;7.37;;;19.00;99.90;;;;;;5069145;28;20451;-56
2023/04/15 10:11:24;;;;;;;11.52;6.72;;;18.80;99.90;;;;;;5069812;28;20376;-56
2023/04/15 10:13:51;;;;;;;12.93;6.97;;;18.30;99.90;;;;;;5051409;28;20398;-56
2023/04/15 10:16:19;;;;;;;10.20;6.72;;;18.20;99.90;;;;;;5069832;28;20372;-56
2023/04/15 10:18:54;;;;;;;9.93;6.95;;;18.20;99.90;;;;;;5069414;28;20507;-56
2023/04/15 10:21:21;;;;;;;10.77;8.27;;;18.90;99.90;;;;;;5069806;28;20380;-56
2023/04/15 10:23:47;;;;;;;11.45;7.57;;;19.60;99.90;;;;;;5068830;28;20495;-54
2023/04/15 10:26:14;;;;;;;9.70;6.80;;;20.50;99.90;;;;;;5051700;28;20871;-54
2023/04/15 10:28:43;;;;;;;10.00;6.00;;;21.10;99.90;;;;;;5069026;28;20416;-54
2023/04/15 10:31:12;;;;;;;10.02;6.93;;;22.00;99.90;;;;;;5069138;28;20386;-54
2023/04/15 10:33:39;;;;;;;9.48;6.43;;;22.20;99.90;;;;;;5069611;28;20714;-54
2023/04/15 10:36:06;;;;;;;10.33;6.73;;;20.60;99.90;;;;;;5070595;28;20399;-54
2023/04/15 10:38:37;;;;;;;8.77;6.60;;;19.90;99.90;;;;;;5076444;28;20375;-56
2023/04/15 10:41:19;;;;;;;12.82;8.18;;;19.50;99.90;;;;;;5075565;28;20457;-56
2023/04/15 10:43:47;;;;;;;11.10;6.82;;;19.00;99.90;;;;;;5075804;28;20379;-57
2023/04/15 10:46:13;;;;;;;11.85;7.50;;;18.90;99.90;;;;;;5076067;28;20388;-56
2023/04/15 10:48:47;;;;;;;9.77;7.00;;;18.30;99.90;;;;;;5076005;28;20372;-56
2023/04/15 10:51:13;;;;;;;9.48;6.70;;;18.30;99.90;;;;;;5058070;28;20454;-57
2023/04/15 10:53:42;;;;;;;12.27;7.90;;;18.50;99.90;;;;;;5075772;28;20478;-56
2023/04/15 10:56:09;;;;;;;9.20;6.45;;;18.40;99.90;;;;;;5075074;28;20367;-56
2023/04/15 10:58:42;;;;;;;9.83;5.60;;;17.80;99.90;;;;;;5075966;28;20432;-56
2023/04/15 11:01:07;;;;;;;9.40;6.28;;;18.30;99.90;;;;;;5075460;28;20371;-56
2023/04/15 11:03:42;;;;;;;8.03;6.10;;;18.20;99.90;;;;;;5075711;28;20501;-56
2023/04/15 11:06:08;;;;;;;12.55;7.05;;;18.50;99.90;;;;;;5075653;28;20419;-56
2023/04/15 11:08:52;;;;;;;9.48;5.93;;;18.40;99.90;;;;;;5075946;28;20383;-56
2023/04/15 11:11:18;;;;;;;9.75;6.00;;;17.90;99.90;;;;;;5075740;28;20876;-56
2023/04/15 11:13:49;;;;;;;9.18;6.60;;;18.10;99.90;;;;;;5075489;28;20471;-56
2023/04/15 11:16:15;;;;;;;9.93;6.50;;;18.20;99.90;;;;;;5076252;28;20392;-56
2023/04/15 11:18:40;;;;;;;8.20;5.70;;;18.50;99.90;;;;;;5076034;28;20866;-56
2023/04/15 11:21:08;;;;;;;9.57;6.30;;;18.50;99.90;;;;;;5075181;28;20853;-56
2023/04/15 11:23:36;;;;;;;8.25;5.60;;;17.60;99.90;;;;;;5076029;28;20391;-54
2023/04/15 11:26:05;;;;;;;10.38;5.57;;;17.60;99.90;;;;;;5075477;28;20395;-54
2023/04/15 11:28:31;;;;;;;9.35;6.18;;;17.20;99.90;;;;;;5075241;28;20411;-54
2023/04/15 11:30:58;;;;;;;10.50;6.35;;;16.90;99.90;;;;;;5075234;28;20478;-54
2023/04/15 11:33:24;;;;;;;9.80;6.00;;;16.60;99.90;;;;;;5075767;28;20388;-54
2023/04/15 11:35:54;;;;;;;9.00;6.00;;;16.70;99.90;;;;;;5075596;28;20414;-54
2023/04/15 11:38:19;;;;;;;9.60;5.85;;;16.70;99.90;;;;;;5075788;28;20886;-54
2023/04/15 11:40:45;;;;;;;10.10;6.10;;;17.00;99.90;;;;;;5075122;28;20376;-55
2023/04/15 11:43:19;;;;;;;12.90;6.77;;;17.70;99.90;;;;;;5076014;28;20398;-54
2023/04/15 11:45:55;;;;;;;9.53;6.50;;;18.00;99.90;;;;;;5075188;28;20415;-56
2023/04/15 11:48:26;;;;;;;7.03;5.53;;;17.90;99.90;;;;;;5072958;28;20395;-55
2023/04/15 11:50:53;;;;;;;7.97;6.15;;;17.80;99.90;;;;;;5071965;28;20372;-56
2023/04/15 11:53:19;;;;;;;9.27;6.50;;;17.60;99.90;;;;;;5072368;28;20775;-55
2023/04/15 11:55:46;;;;;;;10.50;6.10;;;17.60;99.90;;;;;;5071402;28;20403;-55
2023/04/15 11:58:18;;;;;;;8.93;6.23;;;16.70;99.90;;;;;;5071768;28;20437;-55
2023/04/15 12:00:54;;;;;;;8.18;5.70;;;17.20;99.90;;;;;;5072815;28;20395;-55
2023/04/15 12:03:27;;;;;;;8.50;5.80;;;17.30;99.90;;;;;;5072511;28;20372;-55
2023/04/15 12:06:23;;;;;;;8.77;6.25;;;17.00;99.90;;;;;;5071612;28;20467;-55
2023/04/15 12:08:54;;;;;;;9.20;6.00;;;17.00;99.90;;;;;;5054895;28;20436;-55
2023/04/15 12:11:47;;;;;;;10.77;5.70;;;16.90;99.90;;;;;;5072221;28;20390;-55
2023/04/15 12:14:25;;;;;;;7.53;5.40;;;15.80;99.90;;;;;;5071489;28;20893;-54
2023/04/15 12:16:56;;;;;;;9.88;4.60;;;14.00;99.90;;;;;;5071442;28;20395;-54
2023/04/15 12:19:23;;;;;;;8.18;3.67;;;13.10;99.90;;;;;;5071825;28;20907;-55
2023/04/15 12:21:51;;;;;;;8.43;2.90;;;12.40;99.90;;;;;;5071108;28;20384;-55
2023/04/15 12:24:21;;;;;;;8.30;3.40;;;11.70;1.00;;;;;;5071765;28;20390;-54
2023/04/15 12:26:52;;;;;;;9.02;3.70;;;11.40;1.00;;;;;;5070978;28;20875;-54
2023/04/15 12:29:19;;;;;;;10.70;3.97;;;11.30;99.90;;;;;;5071298;28;20396;-54
2023/04/15 12:31:48;;;;;;;8.45;3.63;;;11.00;50.70;;;;;;5071680;28;20387;-54
2023/04/15 12:34:14;;;;;;;11.88;3.50;;;11.00;99.90;;;;;;5071392;28;20541;-55
2023/04/15 12:36:40;;;;;;;7.55;3.50;;;11.40;99.90;;;;;;5071422;28;20387;-55
2023/04/15 12:39:06;;;;;;;8.30;3.00;;;11.90;1.00;;;;;;5070810;28;20376;-55
2023/04/15 12:41:32;;;;;;;7.50;2.90;;;12.40;1.00;;;;;;5071495;28;20394;-55
2023/04/15 12:43:58;;;;;;;8.00;2.80;;;12.60;1.00;;;;;;5070072;28;20885;-55
2023/04/15 12:46:24;;;;;;;7.38;2.60;;;12.90;1.00;;;;;;5071518;28;20380;-54
2023/04/15 12:48:52;;;;;;;7.00;2.10;;;13.00;99.90;;;;;;5070161;28;20391;-54